sensor_id;sensor_type;location;lat;lon;timestamp;P1;durP1;ratioP1;P2;durP2;ratioP2
7983;SDS011;4037;47.980;10.172;2024-02-26T00:00:03;2.33;;;1.70;;
7983;SDS011;4037;47.980;10.172;2024-02-26T00:02:30;2.67;;;1.80;;
7983;SDS011;4037;47.980;10.172;2024-02-26T00:04:58;2.23;;;2.00;;
7983;SDS011;4037;47.980;10.172;2024-02-26T00:07:24;2.23;;;1.70;;
7983;SDS011;4037;47.980;10.172;2024-02-26T00:09:50;2.27;;;2.07;;
7983;SDS011;4037;47.980;10.172;2024-02-26T00:12:16;2.90;;;2.00;;
7983;SDS011;4037;47.980;10.172;2024-02-26T00:14:42;4.47;;;2.20;;
7983;SDS011;4037;47.980;10.172;2024-02-26T00:17:10;2.33;;;2.13;;
7983;SDS011;4037;47.980;10.172;2024-02-26T00:19:36;4.67;;;2.40;;
7983;SDS011;4037;47.980;10.172;2024-02-26T00:22:02;2.97;;;2.30;;
7983;SDS011;4037;47.980;10.172;2024-02-26T00:24:28;2.97;;;2.17;;
7983;SDS011;4037;47.980;10.172;2024-02-26T00:26:54;2.67;;;1.80;;
7983;SDS011;4037;47.980;10.172;2024-02-26T00:29:20;2.77;;;2.10;;
7983;SDS011;4037;47.980;10.172;2024-02-26T00:31:46;2.43;;;2.03;;
7983;SDS011;4037;47.980;10.172;2024-02-26T00:34:12;3.30;;;2.00;;
7983;SDS011;4037;47.980;10.172;2024-02-26T00:36:38;3.97;;;1.60;;
7983;SDS011;4037;47.980;10.172;2024-02-26T00:39:04;1.80;;;1.70;;
7983;SDS011;4037;47.980;10.172;2024-02-26T00:41:31;3.70;;;1.90;;
7983;SDS011;4037;47.980;10.172;2024-02-26T00:43:57;2.40;;;2.20;;
7983;SDS011;4037;47.980;10.172;2024-02-26T00:46:23;2.17;;;1.97;;
7983;SDS011;4037;47.980;10.172;2024-02-26T00:48:50;2.07;;;1.87;;
7983;SDS011;4037;47.980;10.172;2024-02-26T00:51:15;2.83;;;1.70;;
7983;SDS011;4037;47.980;10.172;2024-02-26T00:53:41;2.73;;;1.90;;
7983;SDS011;4037;47.980;10.172;2024-02-26T00:56:07;2.87;;;1.80;;
7983;SDS011;4037;47.980;10.172;2024-02-26T00:58:33;2.10;;;1.90;;
7983;SDS011;4037;47.980;10.172;2024-02-26T01:00:59;3.00;;;2.00;;
7983;SDS011;4037;47.980;10.172;2024-02-26T01:03:25;3.17;;;1.70;;
7983;SDS011;4037;47.980;10.172;2024-02-26T01:05:51;2.00;;;1.83;;
7983;SDS011;4037;47.980;10.172;2024-02-26T01:08:17;2.13;;;1.87;;
7983;SDS011;4037;47.980;10.172;2024-02-26T01:10:43;2.23;;;2.03;;
7983;SDS011;4037;47.980;10.172;2024-02-26T01:13:09;2.23;;;1.87;;
7983;SDS011;4037;47.980;10.172;2024-02-26T01:15:35;2.13;;;1.93;;
7983;SDS011;4037;47.980;10.172;2024-02-26T01:18:01;1.47;;;1.37;;
7983;SDS011;4037;47.980;10.172;2024-02-26T01:20:27;1.77;;;1.60;;
7983;SDS011;4037;47.980;10.172;2024-02-26T01:22:53;2.43;;;2.00;;
7983;SDS011;4037;47.980;10.172;2024-02-26T01:25:19;4.23;;;2.00;;
7983;SDS011;4037;47.980;10.172;2024-02-26T01:27:45;2.43;;;2.13;;
7983;SDS011;4037;47.980;10.172;2024-02-26T01:30:12;2.07;;;1.80;;
7983;SDS011;4037;47.980;10.172;2024-02-26T01:32:39;2.70;;;1.90;;
7983;SDS011;4037;47.980;10.172;2024-02-26T01:35:05;2.63;;;2.33;;
7983;SDS011;4037;47.980;10.172;2024-02-26T01:37:35;2.03;;;1.70;;
7983;SDS011;4037;47.980;10.172;2024-02-26T01:40:01;2.10;;;1.90;;
7983;SDS011;4037;47.980;10.172;2024-02-26T01:42:29;2.53;;;1.90;;
7983;SDS011;4037;47.980;10.172;2024-02-26T01:44:56;2.87;;;1.70;;
7983;SDS011;4037;47.980;10.172;2024-02-26T01:47:22;2.60;;;1.97;;
7983;SDS011;4037;47.980;10.172;2024-02-26T01:49:48;3.33;;;2.70;;
7983;SDS011;4037;47.980;10.172;2024-02-26T01:52:14;3.10;;;2.03;;
7983;SDS011;4037;47.980;10.172;2024-02-26T01:54:41;2.27;;;2.07;;
7983;SDS011;4037;47.980;10.172;2024-02-26T01:57:08;3.23;;;1.87;;
7983;SDS011;4037;47.980;10.172;2024-02-26T01:59:34;2.70;;;1.87;;
7983;SDS011;4037;47.980;10.172;2024-02-26T02:02:00;3.40;;;2.17;;
7983;SDS011;4037;47.980;10.172;2024-02-26T02:04:27;3.43;;;2.00;;
7983;SDS011;4037;47.980;10.172;2024-02-26T02:06:53;3.03;;;2.23;;
7983;SDS011;4037;47.980;10.172;2024-02-26T02:09:19;2.00;;;1.90;;
7983;SDS011;4037;47.980;10.172;2024-02-26T02:11:45;1.90;;;1.77;;
7983;SDS011;4037;47.980;10.172;2024-02-26T02:14:13;1.90;;;1.80;;
7983;SDS011;4037;47.980;10.172;2024-02-26T02:16:39;4.13;;;2.40;;
7983;SDS011;4037;47.980;10.172;2024-02-26T02:19:05;2.53;;;2.13;;
7983;SDS011;4037;47.980;10.172;2024-02-26T02:21:31;1.73;;;1.60;;
7983;SDS011;4037;47.980;10.172;2024-02-26T02:23:57;2.37;;;2.10;;
7983;SDS011;4037;47.980;10.172;2024-02-26T02:26:23;1.90;;;1.63;;
7983;SDS011;4037;47.980;10.172;2024-02-26T02:28:49;2.13;;;1.90;;
7983;SDS011;4037;47.980;10.172;2024-02-26T02:31:15;2.07;;;1.87;;
7983;SDS011;4037;47.980;10.172;2024-02-26T02:33:42;1.77;;;1.63;;
7983;SDS011;4037;47.980;10.172;2024-02-26T02:36:08;2.20;;;1.90;;
7983;SDS011;4037;47.980;10.172;2024-02-26T02:38:38;2.10;;;1.80;;
7983;SDS011;4037;47.980;10.172;2024-02-26T02:41:04;3.50;;;2.17;;
7983;SDS011;4037;47.980;10.172;2024-02-26T02:43:30;1.80;;;1.70;;
7983;SDS011;4037;47.980;10.172;2024-02-26T02:45:56;2.07;;;1.97;;
7983;SDS011;4037;47.980;10.172;2024-02-26T02:48:22;2.50;;;1.80;;
7983;SDS011;4037;47.980;10.172;2024-02-26T02:50:48;2.13;;;1.80;;
7983;SDS011;4037;47.980;10.172;2024-02-26T02:53:14;1.90;;;1.80;;
7983;SDS011;4037;47.980;10.172;2024-02-26T02:55:41;2.97;;;2.20;;
7983;SDS011;4037;47.980;10.172;2024-02-26T02:58:07;2.07;;;1.87;;
7983;SDS011;4037;47.980;10.172;2024-02-26T03:00:33;2.53;;;2.33;;
7983;SDS011;4037;47.980;10.172;2024-02-26T03:02:59;3.03;;;2.07;;
7983;SDS011;4037;47.980;10.172;2024-02-26T03:05:25;2.60;;;2.37;;
7983;SDS011;4037;47.980;10.172;2024-02-26T03:07:52;3.60;;;2.63;;
7983;SDS011;4037;47.980;10.172;2024-02-26T03:10:18;3.13;;;2.80;;
7983;SDS011;4037;47.980;10.172;2024-02-26T03:12:45;3.63;;;2.50;;
7983;SDS011;4037;47.980;10.172;2024-02-26T03:15:11;2.67;;;2.40;;
7983;SDS011;4037;47.980;10.172;2024-02-26T03:17:37;2.53;;;2.33;;
7983;SDS011;4037;47.980;10.172;2024-02-26T03:20:03;3.03;;;2.43;;
7983;SDS011;4037;47.980;10.172;2024-02-26T03:22:30;3.23;;;2.80;;
7983;SDS011;4037;47.980;10.172;2024-02-26T03:24:56;6.33;;;3.00;;
7983;SDS011;4037;47.980;10.172;2024-02-26T03:27:22;3.47;;;2.83;;
7983;SDS011;4037;47.980;10.172;2024-02-26T03:29:48;3.40;;;2.97;;
7983;SDS011;4037;47.980;10.172;2024-02-26T03:32:14;4.27;;;3.33;;
7983;SDS011;4037;47.980;10.172;2024-02-26T03:34:40;3.63;;;3.27;;
7983;SDS011;4037;47.980;10.172;2024-02-26T03:37:06;3.87;;;3.13;;
7983;SDS011;4037;47.980;10.172;2024-02-26T03:39:35;3.70;;;3.40;;
7983;SDS011;4037;47.980;10.172;2024-02-26T03:42:01;2.97;;;2.70;;
7983;SDS011;4037;47.980;10.172;2024-02-26T03:44:27;3.20;;;2.90;;
7983;SDS011;4037;47.980;10.172;2024-02-26T03:46:53;4.50;;;3.17;;
7983;SDS011;4037;47.980;10.172;2024-02-26T03:49:19;3.33;;;2.80;;
7983;SDS011;4037;47.980;10.172;2024-02-26T03:51:45;4.17;;;2.63;;
7983;SDS011;4037;47.980;10.172;2024-02-26T03:54:11;3.73;;;3.30;;
7983;SDS011;4037;47.980;10.172;2024-02-26T03:56:37;4.40;;;3.07;;
7983;SDS011;4037;47.980;10.172;2024-02-26T03:59:03;3.67;;;3.37;;
7983;SDS011;4037;47.980;10.172;2024-02-26T04:01:29;4.17;;;3.07;;
7983;SDS011;4037;47.980;10.172;2024-02-26T04:03:55;3.50;;;2.90;;
7983;SDS011;4037;47.980;10.172;2024-02-26T04:06:21;6.43;;;3.50;;
7983;SDS011;4037;47.980;10.172;2024-02-26T04:08:47;3.23;;;2.93;;
7983;SDS011;4037;47.980;10.172;2024-02-26T04:11:13;4.53;;;3.57;;
7983;SDS011;4037;47.980;10.172;2024-02-26T04:13:43;5.27;;;3.50;;
7983;SDS011;4037;47.980;10.172;2024-02-26T04:16:11;5.07;;;3.20;;
7983;SDS011;4037;47.980;10.172;2024-02-26T04:18:37;5.00;;;3.20;;
7983;SDS011;4037;47.980;10.172;2024-02-26T04:21:03;4.27;;;3.27;;
7983;SDS011;4037;47.980;10.172;2024-02-26T04:23:32;3.87;;;2.90;;
7983;SDS011;4037;47.980;10.172;2024-02-26T04:25:58;6.23;;;3.13;;
7983;SDS011;4037;47.980;10.172;2024-02-26T04:28:24;3.57;;;3.10;;
7983;SDS011;4037;47.980;10.172;2024-02-26T04:30:56;3.60;;;2.90;;
7983;SDS011;4037;47.980;10.172;2024-02-26T04:33:22;3.10;;;2.80;;
7983;SDS011;4037;47.980;10.172;2024-02-26T04:35:48;4.27;;;3.03;;
7983;SDS011;4037;47.980;10.172;2024-02-26T04:38:14;3.83;;;2.87;;
7983;SDS011;4037;47.980;10.172;2024-02-26T04:40:40;4.00;;;2.77;;
7983;SDS011;4037;47.980;10.172;2024-02-26T04:43:06;3.80;;;3.20;;
7983;SDS011;4037;47.980;10.172;2024-02-26T04:45:32;6.47;;;3.90;;
7983;SDS011;4037;47.980;10.172;2024-02-26T04:47:59;4.83;;;3.63;;
7983;SDS011;4037;47.980;10.172;2024-02-26T04:50:25;4.30;;;3.40;;
7983;SDS011;4037;47.980;10.172;2024-02-26T04:52:51;3.10;;;2.60;;
7983;SDS011;4037;47.980;10.172;2024-02-26T04:55:17;4.53;;;2.70;;
7983;SDS011;4037;47.980;10.172;2024-02-26T04:57:43;3.17;;;2.73;;
7983;SDS011;4037;47.980;10.172;2024-02-26T05:00:09;5.30;;;3.07;;
7983;SDS011;4037;47.980;10.172;2024-02-26T05:02:35;2.53;;;2.33;;
7983;SDS011;4037;47.980;10.172;2024-02-26T05:05:04;4.57;;;3.10;;
7983;SDS011;4037;47.980;10.172;2024-02-26T05:07:30;3.00;;;2.33;;
7983;SDS011;4037;47.980;10.172;2024-02-26T05:09:56;3.07;;;2.13;;
7983;SDS011;4037;47.980;10.172;2024-02-26T05:12:22;2.63;;;2.40;;
7983;SDS011;4037;47.980;10.172;2024-02-26T05:14:48;4.57;;;2.43;;
7983;SDS011;4037;47.980;10.172;2024-02-26T05:17:14;3.90;;;2.73;;
7983;SDS011;4037;47.980;10.172;2024-02-26T05:19:40;4.63;;;3.10;;
7983;SDS011;4037;47.980;10.172;2024-02-26T05:22:06;5.53;;;3.60;;
7983;SDS011;4037;47.980;10.172;2024-02-26T05:24:32;3.43;;;2.90;;
7983;SDS011;4037;47.980;10.172;2024-02-26T05:26:59;5.53;;;4.20;;
7983;SDS011;4037;47.980;10.172;2024-02-26T05:29:25;6.20;;;4.30;;
7983;SDS011;4037;47.980;10.172;2024-02-26T05:31:51;7.13;;;4.10;;
7983;SDS011;4037;47.980;10.172;2024-02-26T05:34:19;6.30;;;3.97;;
7983;SDS011;4037;47.980;10.172;2024-02-26T05:36:45;3.43;;;2.73;;
7983;SDS011;4037;47.980;10.172;2024-02-26T05:39:11;4.33;;;3.10;;
7983;SDS011;4037;47.980;10.172;2024-02-26T05:41:37;3.23;;;2.60;;
7983;SDS011;4037;47.980;10.172;2024-02-26T05:44:03;4.17;;;3.37;;
7983;SDS011;4037;47.980;10.172;2024-02-26T05:46:29;3.00;;;2.70;;
7983;SDS011;4037;47.980;10.172;2024-02-26T05:48:55;5.73;;;3.23;;
7983;SDS011;4037;47.980;10.172;2024-02-26T05:51:21;3.73;;;2.57;;
7983;SDS011;4037;47.980;10.172;2024-02-26T05:53:47;4.97;;;3.03;;
7983;SDS011;4037;47.980;10.172;2024-02-26T05:56:18;4.60;;;2.63;;
7983;SDS011;4037;47.980;10.172;2024-02-26T05:58:44;3.13;;;2.83;;
7983;SDS011;4037;47.980;10.172;2024-02-26T06:01:10;3.60;;;2.60;;
7983;SDS011;4037;47.980;10.172;2024-02-26T06:03:36;3.80;;;2.57;;
7983;SDS011;4037;47.980;10.172;2024-02-26T06:06:02;3.17;;;2.70;;
7983;SDS011;4037;47.980;10.172;2024-02-26T06:08:28;4.70;;;3.37;;
7983;SDS011;4037;47.980;10.172;2024-02-26T06:10:54;4.73;;;3.57;;
7983;SDS011;4037;47.980;10.172;2024-02-26T06:13:20;16.70;;;9.13;;
7983;SDS011;4037;47.980;10.172;2024-02-26T06:15:46;21.60;;;10.87;;
7983;SDS011;4037;47.980;10.172;2024-02-26T06:18:12;5.47;;;3.70;;
7983;SDS011;4037;47.980;10.172;2024-02-26T06:20:38;3.30;;;2.90;;
7983;SDS011;4037;47.980;10.172;2024-02-26T06:23:04;5.47;;;3.80;;
7983;SDS011;4037;47.980;10.172;2024-02-26T06:25:30;4.23;;;2.70;;
7983;SDS011;4037;47.980;10.172;2024-02-26T06:27:56;4.17;;;2.43;;
7983;SDS011;4037;47.980;10.172;2024-02-26T06:30:22;3.20;;;2.20;;
7983;SDS011;4037;47.980;10.172;2024-02-26T06:32:48;6.17;;;3.17;;
7983;SDS011;4037;47.980;10.172;2024-02-26T06:35:14;8.40;;;4.30;;
7983;SDS011;4037;47.980;10.172;2024-02-26T06:37:40;4.00;;;2.97;;
7983;SDS011;4037;47.980;10.172;2024-02-26T06:40:06;3.83;;;2.67;;
7983;SDS011;4037;47.980;10.172;2024-02-26T06:42:32;4.47;;;3.23;;
7983;SDS011;4037;47.980;10.172;2024-02-26T06:44:58;5.80;;;3.73;;
7983;SDS011;4037;47.980;10.172;2024-02-26T06:47:24;6.37;;;4.50;;
7983;SDS011;4037;47.980;10.172;2024-02-26T06:49:51;5.23;;;4.00;;
7983;SDS011;4037;47.980;10.172;2024-02-26T06:52:17;5.80;;;4.00;;
7983;SDS011;4037;47.980;10.172;2024-02-26T06:54:43;4.77;;;4.27;;
7983;SDS011;4037;47.980;10.172;2024-02-26T06:57:09;5.50;;;4.50;;
7983;SDS011;4037;47.980;10.172;2024-02-26T06:59:36;3.30;;;2.80;;
7983;SDS011;4037;47.980;10.172;2024-02-26T07:02:02;3.27;;;2.60;;
7983;SDS011;4037;47.980;10.172;2024-02-26T07:04:28;5.30;;;3.03;;
7983;SDS011;4037;47.980;10.172;2024-02-26T07:06:54;3.03;;;2.73;;
7983;SDS011;4037;47.980;10.172;2024-02-26T07:09:20;4.87;;;4.20;;
7983;SDS011;4037;47.980;10.172;2024-02-26T07:11:46;6.50;;;3.97;;
7983;SDS011;4037;47.980;10.172;2024-02-26T07:14:12;5.87;;;3.10;;
7983;SDS011;4037;47.980;10.172;2024-02-26T07:16:38;3.30;;;2.87;;
7983;SDS011;4037;47.980;10.172;2024-02-26T07:19:04;3.13;;;2.70;;
7983;SDS011;4037;47.980;10.172;2024-02-26T07:21:30;3.57;;;2.87;;
7983;SDS011;4037;47.980;10.172;2024-02-26T07:23:56;5.07;;;3.13;;
7983;SDS011;4037;47.980;10.172;2024-02-26T07:26:22;4.40;;;2.90;;
7983;SDS011;4037;47.980;10.172;2024-02-26T07:28:51;3.33;;;2.73;;
7983;SDS011;4037;47.980;10.172;2024-02-26T07:31:17;3.00;;;2.40;;
7983;SDS011;4037;47.980;10.172;2024-02-26T07:33:43;3.07;;;2.77;;
7983;SDS011;4037;47.980;10.172;2024-02-26T07:36:09;3.37;;;3.07;;
7983;SDS011;4037;47.980;10.172;2024-02-26T07:38:35;3.93;;;3.20;;
7983;SDS011;4037;47.980;10.172;2024-02-26T07:41:02;3.13;;;2.83;;
7983;SDS011;4037;47.980;10.172;2024-02-26T07:43:28;3.70;;;2.97;;
7983;SDS011;4037;47.980;10.172;2024-02-26T07:45:54;4.23;;;3.50;;
7983;SDS011;4037;47.980;10.172;2024-02-26T07:48:20;4.50;;;3.30;;
7983;SDS011;4037;47.980;10.172;2024-02-26T07:50:46;3.70;;;3.20;;
7983;SDS011;4037;47.980;10.172;2024-02-26T07:53:13;4.83;;;3.40;;
7983;SDS011;4037;47.980;10.172;2024-02-26T07:55:39;4.97;;;2.97;;
7983;SDS011;4037;47.980;10.172;2024-02-26T07:58:05;4.30;;;3.00;;
7983;SDS011;4037;47.980;10.172;2024-02-26T08:00:31;4.33;;;3.30;;
7983;SDS011;4037;47.980;10.172;2024-02-26T08:02:57;5.70;;;2.57;;
7983;SDS011;4037;47.980;10.172;2024-02-26T08:05:23;3.80;;;2.83;;
7983;SDS011;4037;47.980;10.172;2024-02-26T08:07:50;5.77;;;2.93;;
7983;SDS011;4037;47.980;10.172;2024-02-26T08:10:16;5.57;;;3.67;;
7983;SDS011;4037;47.980;10.172;2024-02-26T08:12:42;6.97;;;4.30;;
7983;SDS011;4037;47.980;10.172;2024-02-26T08:15:10;12.50;;;4.30;;
7983;SDS011;4037;47.980;10.172;2024-02-26T08:17:36;6.17;;;3.70;;
7983;SDS011;4037;47.980;10.172;2024-02-26T08:20:02;4.73;;;3.13;;
7983;SDS011;4037;47.980;10.172;2024-02-26T08:22:28;4.67;;;3.87;;
7983;SDS011;4037;47.980;10.172;2024-02-26T08:24:54;4.37;;;3.23;;
7983;SDS011;4037;47.980;10.172;2024-02-26T08:27:20;7.77;;;5.40;;
7983;SDS011;4037;47.980;10.172;2024-02-26T08:29:46;8.53;;;5.63;;
7983;SDS011;4037;47.980;10.172;2024-02-26T08:32:12;9.53;;;5.17;;
7983;SDS011;4037;47.980;10.172;2024-02-26T08:34:38;5.53;;;4.33;;
7983;SDS011;4037;47.980;10.172;2024-02-26T08:37:05;6.77;;;4.77;;
7983;SDS011;4037;47.980;10.172;2024-02-26T08:39:31;8.00;;;3.57;;
7983;SDS011;4037;47.980;10.172;2024-02-26T08:41:57;6.30;;;4.23;;
7983;SDS011;4037;47.980;10.172;2024-02-26T08:44:23;4.63;;;3.37;;
7983;SDS011;4037;47.980;10.172;2024-02-26T08:46:50;4.43;;;3.20;;
7983;SDS011;4037;47.980;10.172;2024-02-26T08:49:16;4.87;;;3.13;;
7983;SDS011;4037;47.980;10.172;2024-02-26T08:51:42;5.43;;;3.40;;
7983;SDS011;4037;47.980;10.172;2024-02-26T08:54:09;6.83;;;3.80;;
7983;SDS011;4037;47.980;10.172;2024-02-26T08:56:35;5.07;;;3.53;;
7983;SDS011;4037;47.980;10.172;2024-02-26T08:59:01;5.00;;;3.47;;
7983;SDS011;4037;47.980;10.172;2024-02-26T09:01:29;3.70;;;2.83;;
7983;SDS011;4037;47.980;10.172;2024-02-26T09:03:55;3.30;;;2.40;;
7983;SDS011;4037;47.980;10.172;2024-02-26T09:06:21;2.83;;;2.40;;
7983;SDS011;4037;47.980;10.172;2024-02-26T09:08:47;3.90;;;2.70;;
7983;SDS011;4037;47.980;10.172;2024-02-26T09:11:13;4.60;;;3.67;;
7983;SDS011;4037;47.980;10.172;2024-02-26T09:13:39;7.20;;;4.70;;
7983;SDS011;4037;47.980;10.172;2024-02-26T09:16:05;5.53;;;3.90;;
7983;SDS011;4037;47.980;10.172;2024-02-26T09:18:32;5.80;;;3.33;;
7983;SDS011;4037;47.980;10.172;2024-02-26T09:20:58;3.87;;;3.00;;
7983;SDS011;4037;47.980;10.172;2024-02-26T09:23:24;4.03;;;3.10;;
7983;SDS011;4037;47.980;10.172;2024-02-26T09:25:50;4.50;;;3.53;;
7983;SDS011;4037;47.980;10.172;2024-02-26T09:28:16;5.27;;;3.07;;
7983;SDS011;4037;47.980;10.172;2024-02-26T09:30:43;5.20;;;3.90;;
7983;SDS011;4037;47.980;10.172;2024-02-26T09:33:09;8.07;;;3.10;;
7983;SDS011;4037;47.980;10.172;2024-02-26T09:35:35;3.80;;;3.30;;
7983;SDS011;4037;47.980;10.172;2024-02-26T09:38:01;5.30;;;3.70;;
7983;SDS011;4037;47.980;10.172;2024-02-26T09:40:27;6.33;;;3.80;;
7983;SDS011;4037;47.980;10.172;2024-02-26T09:42:56;4.43;;;3.57;;
7983;SDS011;4037;47.980;10.172;2024-02-26T09:45:25;5.37;;;3.80;;
7983;SDS011;4037;47.980;10.172;2024-02-26T09:47:52;4.33;;;2.97;;
7983;SDS011;4037;47.980;10.172;2024-02-26T09:50:21;3.27;;;2.77;;
7983;SDS011;4037;47.980;10.172;2024-02-26T09:52:47;3.33;;;2.57;;
7983;SDS011;4037;47.980;10.172;2024-02-26T09:55:13;3.17;;;2.70;;
7983;SDS011;4037;47.980;10.172;2024-02-26T09:57:41;2.50;;;2.30;;
7983;SDS011;4037;47.980;10.172;2024-02-26T10:00:20;5.13;;;3.47;;
7983;SDS011;4037;47.980;10.172;2024-02-26T10:02:47;4.43;;;3.07;;
7983;SDS011;4037;47.980;10.172;2024-02-26T10:05:14;3.73;;;2.97;;
7983;SDS011;4037;47.980;10.172;2024-02-26T10:07:40;4.30;;;3.47;;
7983;SDS011;4037;47.980;10.172;2024-02-26T10:10:08;3.87;;;3.27;;
7983;SDS011;4037;47.980;10.172;2024-02-26T10:12:34;4.53;;;2.90;;
7983;SDS011;4037;47.980;10.172;2024-02-26T10:15:00;4.23;;;2.87;;
7983;SDS011;4037;47.980;10.172;2024-02-26T10:17:26;3.40;;;2.90;;
7983;SDS011;4037;47.980;10.172;2024-02-26T10:19:53;5.73;;;3.13;;
7983;SDS011;4037;47.980;10.172;2024-02-26T10:22:21;4.20;;;2.90;;
7983;SDS011;4037;47.980;10.172;2024-02-26T10:24:47;6.20;;;3.67;;
7983;SDS011;4037;47.980;10.172;2024-02-26T10:27:14;4.07;;;3.23;;
7983;SDS011;4037;47.980;10.172;2024-02-26T10:29:40;3.53;;;2.67;;
7983;SDS011;4037;47.980;10.172;2024-02-26T10:32:08;3.37;;;2.80;;
7983;SDS011;4037;47.980;10.172;2024-02-26T10:34:34;4.73;;;3.20;;
7983;SDS011;4037;47.980;10.172;2024-02-26T10:37:04;3.10;;;2.43;;
7983;SDS011;4037;47.980;10.172;2024-02-26T10:39:30;3.20;;;2.60;;
7983;SDS011;4037;47.980;10.172;2024-02-26T10:41:56;3.57;;;2.50;;
7983;SDS011;4037;47.980;10.172;2024-02-26T10:44:22;4.53;;;2.33;;
7983;SDS011;4037;47.980;10.172;2024-02-26T10:46:48;3.03;;;2.63;;
7983;SDS011;4037;47.980;10.172;2024-02-26T10:49:14;4.40;;;2.67;;
7983;SDS011;4037;47.980;10.172;2024-02-26T10:51:43;3.77;;;3.30;;
7983;SDS011;4037;47.980;10.172;2024-02-26T10:54:10;4.50;;;2.93;;
7983;SDS011;4037;47.980;10.172;2024-02-26T10:56:38;4.13;;;2.63;;
7983;SDS011;4037;47.980;10.172;2024-02-26T10:59:08;5.80;;;2.93;;
7983;SDS011;4037;47.980;10.172;2024-02-26T11:01:35;4.23;;;2.80;;
7983;SDS011;4037;47.980;10.172;2024-02-26T11:04:06;2.87;;;2.50;;
7983;SDS011;4037;47.980;10.172;2024-02-26T11:06:32;4.70;;;3.00;;
7983;SDS011;4037;47.980;10.172;2024-02-26T11:08:59;3.07;;;2.53;;
7983;SDS011;4037;47.980;10.172;2024-02-26T11:11:26;4.60;;;2.70;;
7983;SDS011;4037;47.980;10.172;2024-02-26T11:13:53;3.70;;;2.33;;
7983;SDS011;4037;47.980;10.172;2024-02-26T11:16:22;4.50;;;3.03;;
7983;SDS011;4037;47.980;10.172;2024-02-26T11:18:49;3.37;;;2.80;;
7983;SDS011;4037;47.980;10.172;2024-02-26T11:21:15;5.20;;;3.17;;
7983;SDS011;4037;47.980;10.172;2024-02-26T11:23:52;4.67;;;2.90;;
7983;SDS011;4037;47.980;10.172;2024-02-26T11:26:18;4.37;;;3.00;;
7983;SDS011;4037;47.980;10.172;2024-02-26T11:28:45;3.50;;;2.70;;
7983;SDS011;4037;47.980;10.172;2024-02-26T11:31:12;3.20;;;2.80;;
7983;SDS011;4037;47.980;10.172;2024-02-26T11:33:38;2.90;;;2.60;;
7983;SDS011;4037;47.980;10.172;2024-02-26T11:36:08;3.23;;;2.93;;
7983;SDS011;4037;47.980;10.172;2024-02-26T11:38:34;3.43;;;2.30;;
7983;SDS011;4037;47.980;10.172;2024-02-26T11:41:01;3.47;;;2.50;;
7983;SDS011;4037;47.980;10.172;2024-02-26T11:46:24;3.13;;;2.60;;
7983;SDS011;4037;47.980;10.172;2024-02-26T11:48:51;3.20;;;2.40;;
7983;SDS011;4037;47.980;10.172;2024-02-26T11:51:17;7.07;;;4.37;;
7983;SDS011;4037;47.980;10.172;2024-02-26T11:53:46;6.23;;;3.37;;
7983;SDS011;4037;47.980;10.172;2024-02-26T11:58:57;3.30;;;2.53;;
7983;SDS011;4037;47.980;10.172;2024-02-26T12:01:57;2.23;;;2.00;;
7983;SDS011;4037;47.980;10.172;2024-02-26T12:04:24;3.07;;;2.53;;
7983;SDS011;4037;47.980;10.172;2024-02-26T12:06:52;2.93;;;2.03;;
7983;SDS011;4037;47.980;10.172;2024-02-26T12:09:31;2.80;;;2.30;;
7983;SDS011;4037;47.980;10.172;2024-02-26T12:11:57;2.07;;;1.87;;
7983;SDS011;4037;47.980;10.172;2024-02-26T12:14:26;2.30;;;1.60;;
7983;SDS011;4037;47.980;10.172;2024-02-26T12:16:53;1.67;;;1.57;;
7983;SDS011;4037;47.980;10.172;2024-02-26T12:19:21;3.00;;;1.70;;
7983;SDS011;4037;47.980;10.172;2024-02-26T12:21:50;1.67;;;1.57;;
7983;SDS011;4037;47.980;10.172;2024-02-26T12:24:17;2.07;;;1.77;;
7983;SDS011;4037;47.980;10.172;2024-02-26T12:26:45;3.37;;;1.90;;
7983;SDS011;4037;47.980;10.172;2024-02-26T12:29:11;1.87;;;1.50;;
7983;SDS011;4037;47.980;10.172;2024-02-26T12:31:38;1.70;;;1.60;;
7983;SDS011;4037;47.980;10.172;2024-02-26T12:34:05;1.77;;;1.67;;
7983;SDS011;4037;47.980;10.172;2024-02-26T12:36:32;2.27;;;1.73;;
7983;SDS011;4037;47.980;10.172;2024-02-26T12:38:59;4.87;;;2.87;;
7983;SDS011;4037;47.980;10.172;2024-02-26T12:41:27;5.43;;;4.43;;
7983;SDS011;4037;47.980;10.172;2024-02-26T12:43:55;5.20;;;3.03;;
7983;SDS011;4037;47.980;10.172;2024-02-26T12:46:21;6.23;;;4.23;;
7983;SDS011;4037;47.980;10.172;2024-02-26T12:48:47;4.47;;;2.83;;
7983;SDS011;4037;47.980;10.172;2024-02-26T12:51:14;5.23;;;3.43;;
7983;SDS011;4037;47.980;10.172;2024-02-26T12:53:40;4.47;;;3.63;;
7983;SDS011;4037;47.980;10.172;2024-02-26T12:56:07;3.70;;;2.93;;
7983;SDS011;4037;47.980;10.172;2024-02-26T12:58:34;3.73;;;3.27;;
7983;SDS011;4037;47.980;10.172;2024-02-26T13:01:01;4.53;;;3.87;;
7983;SDS011;4037;47.980;10.172;2024-02-26T13:03:27;5.67;;;4.43;;
7983;SDS011;4037;47.980;10.172;2024-02-26T13:05:53;2.13;;;1.93;;
7983;SDS011;4037;47.980;10.172;2024-02-26T13:08:20;3.07;;;2.23;;
7983;SDS011;4037;47.980;10.172;2024-02-26T13:10:46;2.60;;;2.20;;
7983;SDS011;4037;47.980;10.172;2024-02-26T13:13:15;3.20;;;2.13;;
7983;SDS011;4037;47.980;10.172;2024-02-26T13:15:45;2.43;;;2.10;;
7983;SDS011;4037;47.980;10.172;2024-02-26T13:18:14;2.60;;;2.40;;
7983;SDS011;4037;47.980;10.172;2024-02-26T13:20:40;2.30;;;2.10;;
7983;SDS011;4037;47.980;10.172;2024-02-26T13:23:07;4.90;;;2.40;;
7983;SDS011;4037;47.980;10.172;2024-02-26T13:25:34;3.10;;;2.70;;
7983;SDS011;4037;47.980;10.172;2024-02-26T13:28:13;2.50;;;2.20;;
7983;SDS011;4037;47.980;10.172;2024-02-26T13:30:40;4.60;;;2.37;;
7983;SDS011;4037;47.980;10.172;2024-02-26T13:33:10;3.60;;;2.40;;
7983;SDS011;4037;47.980;10.172;2024-02-26T13:35:36;4.60;;;2.40;;
7983;SDS011;4037;47.980;10.172;2024-02-26T13:38:04;3.03;;;2.30;;
7983;SDS011;4037;47.980;10.172;2024-02-26T13:40:31;5.77;;;2.80;;
7983;SDS011;4037;47.980;10.172;2024-02-26T13:42:57;2.50;;;2.30;;
7983;SDS011;4037;47.980;10.172;2024-02-26T13:45:23;4.30;;;2.90;;
7983;SDS011;4037;47.980;10.172;2024-02-26T13:47:49;6.53;;;3.33;;
7983;SDS011;4037;47.980;10.172;2024-02-26T13:50:15;7.13;;;3.27;;
7983;SDS011;4037;47.980;10.172;2024-02-26T13:52:41;3.73;;;2.60;;
7983;SDS011;4037;47.980;10.172;2024-02-26T13:55:08;4.43;;;2.73;;
7983;SDS011;4037;47.980;10.172;2024-02-26T13:57:34;4.03;;;2.53;;
7983;SDS011;4037;47.980;10.172;2024-02-26T14:00:00;3.03;;;2.40;;
7983;SDS011;4037;47.980;10.172;2024-02-26T14:02:26;3.17;;;2.60;;
7983;SDS011;4037;47.980;10.172;2024-02-26T14:04:52;3.60;;;2.60;;
7983;SDS011;4037;47.980;10.172;2024-02-26T14:07:18;2.63;;;2.20;;
7983;SDS011;4037;47.980;10.172;2024-02-26T14:09:44;4.97;;;2.47;;
7983;SDS011;4037;47.980;10.172;2024-02-26T14:12:10;4.33;;;2.73;;
7983;SDS011;4037;47.980;10.172;2024-02-26T14:14:36;2.90;;;2.33;;
7983;SDS011;4037;47.980;10.172;2024-02-26T14:17:04;3.20;;;2.80;;
7983;SDS011;4037;47.980;10.172;2024-02-26T14:19:30;4.20;;;2.90;;
7983;SDS011;4037;47.980;10.172;2024-02-26T14:21:56;5.17;;;2.80;;
7983;SDS011;4037;47.980;10.172;2024-02-26T14:24:22;3.53;;;3.03;;
7983;SDS011;4037;47.980;10.172;2024-02-26T14:26:48;4.30;;;2.73;;
7983;SDS011;4037;47.980;10.172;2024-02-26T14:29:14;3.73;;;2.93;;
7983;SDS011;4037;47.980;10.172;2024-02-26T14:31:41;3.50;;;2.73;;
7983;SDS011;4037;47.980;10.172;2024-02-26T14:34:07;4.30;;;3.00;;
7983;SDS011;4037;47.980;10.172;2024-02-26T14:36:34;5.53;;;3.60;;
7983;SDS011;4037;47.980;10.172;2024-02-26T14:39:00;5.77;;;3.60;;
7983;SDS011;4037;47.980;10.172;2024-02-26T14:41:26;3.70;;;2.90;;
7983;SDS011;4037;47.980;10.172;2024-02-26T14:43:52;3.90;;;3.10;;
7983;SDS011;4037;47.980;10.172;2024-02-26T14:46:18;3.87;;;3.13;;
7983;SDS011;4037;47.980;10.172;2024-02-26T14:48:44;4.03;;;3.20;;
7983;SDS011;4037;47.980;10.172;2024-02-26T14:51:10;5.27;;;3.70;;
7983;SDS011;4037;47.980;10.172;2024-02-26T14:53:36;5.70;;;3.60;;
7983;SDS011;4037;47.980;10.172;2024-02-26T14:56:02;5.90;;;3.33;;
7983;SDS011;4037;47.980;10.172;2024-02-26T14:58:28;4.67;;;3.53;;
7983;SDS011;4037;47.980;10.172;2024-02-26T15:00:54;4.70;;;3.40;;